createdAt,value
2018-12-25T00:00:06.937Z,17.67
2018-12-25T00:02:36.702Z,10.87
2018-12-25T00:05:06.435Z,18.60
2018-12-25T00:07:36.143Z,10.87
2018-12-25T00:10:06.429Z,12.67
2018-12-25T00:12:35.854Z,5.47
2018-12-25T00:15:05.401Z,5.63
2018-12-25T00:17:35.170Z,7.10
2018-12-25T00:20:04.753Z,5.80
2018-12-25T00:22:34.138Z,10.30
2018-12-25T00:25:03.643Z,16.83
2018-12-25T00:27:33.152Z,17.57
2018-12-25T00:30:02.629Z,17.50
2018-12-25T00:32:32.441Z,9.90
2018-12-25T00:35:01.824Z,7.97
2018-12-25T00:37:31.531Z,8.20
2018-12-25T00:40:01.305Z,10.53
2018-12-25T00:42:30.764Z,8.13
2018-12-25T00:45:00.210Z,10.03
2018-12-25T00:47:29.531Z,7.67
2018-12-25T00:49:59.002Z,5.73
2018-12-25T00:52:28.927Z,5.50
2018-12-25T00:54:58.760Z,5.43
2018-12-25T00:57:28.242Z,4.23
2018-12-25T00:59:57.715Z,4.70
2018-12-25T01:02:27.260Z,5.57
2018-12-25T01:04:57.418Z,6.70
2018-12-25T01:07:27.159Z,8.17
2018-12-25T01:09:56.653Z,12.07
2018-12-25T01:12:26.222Z,6.07
2018-12-25T01:14:55.671Z,14.90
2018-12-25T01:17:25.136Z,14.47
2018-12-25T01:19:55.286Z,17.63
2018-12-25T01:22:24.649Z,12.03
2018-12-25T01:24:54.113Z,6.10
2018-12-25T01:27:23.493Z,6.93
2018-12-25T01:29:53.134Z,5.90
2018-12-25T01:32:22.905Z,6.53
2018-12-25T01:34:52.357Z,10.10
2018-12-25T01:37:22.115Z,9.63
2018-12-25T01:39:53.014Z,9.63
2018-12-25T01:42:22.480Z,8.73
2018-12-25T01:44:51.843Z,8.97
2018-12-25T01:47:21.527Z,6.97
2018-12-25T01:49:51.516Z,7.07
2018-12-25T01:52:21.169Z,6.50
2018-12-25T01:54:50.522Z,6.20
2018-12-25T01:57:19.805Z,6.27
2018-12-25T01:59:49.179Z,4.97
2018-12-25T02:02:18.559Z,5.13
2018-12-25T02:04:47.901Z,6.60
2018-12-25T02:07:17.312Z,6.00
2018-12-25T02:09:46.941Z,5.20
2018-12-25T02:12:16.366Z,6.00
2018-12-25T02:14:45.693Z,5.30
2018-12-25T02:17:15.045Z,6.20
2018-12-25T02:19:44.268Z,5.80
2018-12-25T02:22:13.525Z,5.63
2018-12-25T02:24:42.679Z,5.40
2018-12-25T02:27:11.903Z,5.47
2018-12-25T02:29:41.160Z,5.93
2018-12-25T02:32:10.598Z,7.23
2018-12-25T02:34:39.761Z,6.10
2018-12-25T02:37:08.970Z,6.03
2018-12-25T02:39:38.109Z,5.87
2018-12-25T02:42:07.277Z,6.03
2018-12-25T02:44:36.679Z,6.43
2018-12-25T02:47:06.064Z,5.83
2018-12-25T02:49:35.203Z,6.90
2018-12-25T02:52:04.335Z,6.20
2018-12-25T02:54:33.564Z,5.97
2018-12-25T02:57:03.046Z,6.47
2018-12-25T02:59:32.195Z,6.17
2018-12-25T03:02:01.508Z,6.53
2018-12-25T03:04:30.649Z,6.60
2018-12-25T03:07:00.078Z,5.83
2018-12-25T03:09:29.220Z,6.40
2018-12-25T03:11:58.478Z,6.43
2018-12-25T03:14:27.629Z,6.07
2018-12-25T03:16:57.179Z,6.33
2018-12-25T03:19:26.326Z,6.90
2018-12-25T03:21:55.481Z,6.27
2018-12-25T03:24:24.606Z,6.30
2018-12-25T03:26:53.793Z,6.67
2018-12-25T03:29:22.933Z,6.87
2018-12-25T03:31:52.096Z,7.13
2018-12-25T03:34:21.296Z,6.20
2018-12-25T03:36:50.495Z,6.83
2018-12-25T03:39:19.628Z,6.63
2018-12-25T03:41:48.770Z,6.43
2018-12-25T03:44:18.222Z,7.00
2018-12-25T03:46:47.610Z,6.80
2018-12-25T03:49:16.937Z,7.43
2018-12-25T03:51:46.086Z,6.43
2018-12-25T03:54:15.240Z,7.50
2018-12-25T03:56:44.480Z,7.17
2018-12-25T03:59:13.705Z,7.43
2018-12-25T04:01:42.864Z,7.30
2018-12-25T04:04:12.026Z,7.33
2018-12-25T04:06:41.163Z,8.40
2018-12-25T04:09:10.310Z,9.10
2018-12-25T04:11:39.449Z,7.77
2018-12-25T04:14:08.622Z,8.53
2018-12-25T04:16:37.915Z,8.97
2018-12-25T04:19:07.162Z,9.07
2018-12-25T04:21:36.590Z,9.10
2018-12-25T04:24:05.831Z,8.63
2018-12-25T04:26:34.989Z,9.80
2018-12-25T04:29:04.395Z,10.57
2018-12-25T04:31:33.565Z,9.63
2018-12-25T04:34:02.869Z,8.60
2018-12-25T04:36:32.325Z,9.53
2018-12-25T04:39:01.491Z,7.10
2018-12-25T04:41:31.011Z,7.80
2018-12-25T04:44:00.359Z,7.70
2018-12-25T04:46:29.496Z,6.67
2018-12-25T04:48:58.996Z,6.13
2018-12-25T04:51:28.133Z,6.37
2018-12-25T04:53:57.380Z,5.67
2018-12-25T04:56:26.521Z,5.67
2018-12-25T04:58:55.761Z,5.57
2018-12-25T05:01:24.962Z,4.93
2018-12-25T05:03:54.102Z,5.07
2018-12-25T05:06:23.499Z,5.23
2018-12-25T05:08:52.676Z,5.20
2018-12-25T05:11:22.154Z,4.63
2018-12-25T05:13:51.313Z,5.10
2018-12-25T05:16:20.453Z,5.10
2018-12-25T05:18:49.621Z,4.80
2018-12-25T05:21:19.069Z,5.30
2018-12-25T05:23:48.275Z,5.50
2018-12-25T05:26:17.431Z,5.23
2018-12-25T05:28:46.686Z,5.23
2018-12-25T05:31:16.077Z,5.43
2018-12-25T05:33:45.231Z,5.33
2018-12-25T05:36:14.390Z,5.30
2018-12-25T05:38:43.787Z,5.73
2018-12-25T05:41:12.973Z,5.27
2018-12-25T05:43:42.126Z,5.57
2018-12-25T05:46:11.282Z,5.67
2018-12-25T05:48:40.872Z,5.60
2018-12-25T05:51:11.066Z,5.30
2018-12-25T05:53:40.553Z,5.77
2018-12-25T05:56:09.766Z,5.63
2018-12-25T05:58:38.942Z,6.53
2018-12-25T06:01:08.153Z,6.43
2018-12-25T06:03:37.317Z,6.27
2018-12-25T06:06:06.465Z,6.10
2018-12-25T06:08:35.631Z,6.40
2018-12-25T06:11:04.891Z,5.57
2018-12-25T06:13:34.273Z,5.73
2018-12-25T06:16:03.770Z,5.20
2018-12-25T06:18:32.974Z,5.43
2018-12-25T06:21:02.135Z,5.20
2018-12-25T06:23:31.286Z,6.27
2018-12-25T06:26:00.450Z,5.57
2018-12-25T06:28:29.623Z,6.03
2018-12-25T06:30:58.761Z,5.50
2018-12-25T06:33:28.201Z,6.00
2018-12-25T06:35:57.417Z,5.57
2018-12-25T06:38:26.837Z,5.10
2018-12-25T06:40:56.037Z,5.07
2018-12-25T06:43:25.452Z,5.07
2018-12-25T06:45:54.590Z,4.67
2018-12-25T06:48:23.761Z,5.30
2018-12-25T06:50:53.230Z,5.13
2018-12-25T06:53:22.737Z,5.10
2018-12-25T06:55:52.131Z,4.93
2018-12-25T06:58:21.468Z,5.50
2018-12-25T07:00:51.193Z,5.27
2018-12-25T07:03:20.609Z,5.40
2018-12-25T07:05:49.836Z,5.23
2018-12-25T07:08:18.993Z,5.17
2018-12-25T07:10:48.141Z,5.90
2018-12-25T07:13:17.296Z,5.00
2018-12-25T07:15:46.435Z,5.20
2018-12-25T07:18:15.798Z,5.10
2018-12-25T07:20:45.592Z,4.87
2018-12-25T07:23:14.811Z,5.20
2018-12-25T07:25:43.981Z,4.70
2018-12-25T07:28:13.385Z,5.00
2018-12-25T07:30:42.537Z,5.40
2018-12-25T07:33:11.701Z,5.93
2018-12-25T07:35:40.845Z,6.20
2018-12-25T07:38:10.555Z,6.33
2018-12-25T07:40:40.090Z,6.10
2018-12-25T07:43:09.671Z,6.83
2018-12-25T07:45:39.073Z,6.90
2018-12-25T07:48:08.464Z,8.17
2018-12-25T07:50:37.606Z,8.57
2018-12-25T07:53:08.945Z,8.17
2018-12-25T07:55:38.165Z,8.97
2018-12-25T07:58:07.601Z,8.77
2018-12-25T08:00:37.058Z,8.00
2018-12-25T08:03:06.498Z,8.40
2018-12-25T08:05:35.893Z,7.77
2018-12-25T08:08:05.049Z,7.23
2018-12-25T08:10:34.273Z,7.63
2018-12-25T08:13:03.423Z,8.17
2018-12-25T08:15:32.590Z,8.23
2018-12-25T08:18:01.763Z,7.93
2018-12-25T08:20:30.899Z,8.87
2018-12-25T08:23:02.661Z,8.77
2018-12-25T08:25:31.065Z,9.03
2018-12-25T08:28:00.483Z,9.37
2018-12-25T08:30:29.891Z,8.93
2018-12-25T08:32:59.294Z,10.10
2018-12-25T08:35:28.862Z,9.33
2018-12-25T08:37:58.222Z,8.67
2018-12-25T08:40:27.470Z,8.90
2018-12-25T08:42:56.778Z,8.63
2018-12-25T08:45:26.479Z,9.73
2018-12-25T08:47:55.860Z,9.43
2018-12-25T08:50:25.433Z,9.27
2018-12-25T08:52:54.711Z,9.43
2018-12-25T08:55:24.079Z,8.90
2018-12-25T08:57:54.875Z,8.97
2018-12-25T09:00:24.349Z,8.40
2018-12-25T09:02:53.649Z,8.07
2018-12-25T09:05:22.971Z,8.40
2018-12-25T09:07:52.149Z,7.53
2018-12-25T09:10:21.727Z,8.67
2018-12-25T09:12:50.973Z,8.40
2018-12-25T09:15:20.314Z,8.27
2018-12-25T09:17:49.737Z,7.67
2018-12-25T09:20:19.295Z,7.23
2018-12-25T09:22:48.529Z,7.63
2018-12-25T09:25:17.725Z,7.50
2018-12-25T09:27:46.878Z,7.37
2018-12-25T09:30:16.594Z,7.40
2018-12-25T09:32:46.127Z,8.50
2018-12-25T09:35:15.578Z,8.40
2018-12-25T09:37:45.029Z,9.53
2018-12-25T09:40:14.273Z,9.40
2018-12-25T09:42:43.422Z,9.37
2018-12-25T09:45:12.682Z,7.87
2018-12-25T09:47:42.185Z,8.30
2018-12-25T09:50:11.353Z,7.30
2018-12-25T09:52:40.511Z,6.83
2018-12-25T09:55:10.018Z,6.80
2018-12-25T09:57:39.182Z,6.43
2018-12-25T10:00:08.696Z,6.93
2018-12-25T10:02:37.945Z,6.53
2018-12-25T10:05:07.198Z,6.13
2018-12-25T10:07:36.377Z,5.97
2018-12-25T10:10:05.802Z,6.60
2018-12-25T10:12:34.976Z,6.23
2018-12-25T10:15:04.113Z,5.27
2018-12-25T10:17:33.357Z,5.20
2018-12-25T10:20:02.523Z,5.40
2018-12-25T10:22:31.831Z,5.73
2018-12-25T10:25:01.069Z,5.47
2018-12-25T10:27:30.257Z,4.73
2018-12-25T10:29:59.474Z,5.33
2018-12-25T10:32:29.109Z,5.63
2018-12-25T10:34:58.523Z,5.30
2018-12-25T10:37:27.833Z,4.20
2018-12-25T10:39:57.310Z,5.33
2018-12-25T10:42:26.483Z,5.53
2018-12-25T10:44:55.728Z,5.70
2018-12-25T10:47:25.040Z,5.80
2018-12-25T10:49:55.253Z,5.90
2018-12-25T10:52:24.423Z,5.17
2018-12-25T10:54:53.561Z,5.10
2018-12-25T10:57:22.729Z,5.40
2018-12-25T10:59:52.057Z,6.07
2018-12-25T11:02:21.269Z,5.93
2018-12-25T11:04:50.710Z,5.53
2018-12-25T11:07:19.905Z,5.50
2018-12-25T11:09:49.133Z,5.60
2018-12-25T11:12:18.340Z,5.20
2018-12-25T11:14:48.070Z,5.17
2018-12-25T11:17:17.434Z,5.27
2018-12-25T11:19:46.707Z,5.73
2018-12-25T11:22:19.826Z,5.67
2018-12-25T11:24:47.082Z,5.90
2018-12-25T11:27:16.526Z,5.10
2018-12-25T11:29:45.720Z,5.47
2018-12-25T11:32:15.034Z,5.47
2018-12-25T11:34:44.328Z,5.40
2018-12-25T11:37:13.773Z,5.10
2018-12-25T11:39:43.115Z,5.90
2018-12-25T11:42:12.603Z,5.67
2018-12-25T11:44:41.897Z,6.07
2018-12-25T11:47:11.634Z,6.00
2018-12-25T11:49:41.083Z,16.07
2018-12-25T11:52:10.253Z,6.33
2018-12-25T11:54:39.721Z,5.57
2018-12-25T11:57:08.869Z,5.73
2018-12-25T11:59:38.299Z,5.90
2018-12-25T12:02:07.449Z,5.70
2018-12-25T12:04:36.973Z,5.80
2018-12-25T12:07:06.371Z,5.70
2018-12-25T12:09:35.564Z,4.87
2018-12-25T12:12:05.078Z,5.47
2018-12-25T12:14:34.553Z,5.77
2018-12-25T12:17:04.049Z,5.27
2018-12-25T12:19:33.854Z,4.87
2018-12-25T12:22:03.288Z,5.27
2018-12-25T12:24:32.779Z,5.17
2018-12-25T12:27:02.078Z,5.10
2018-12-25T12:29:31.644Z,5.60
2018-12-25T12:32:01.029Z,5.40
2018-12-25T12:34:30.359Z,5.40
2018-12-25T12:36:59.918Z,5.53
2018-12-25T12:39:29.072Z,5.87
2018-12-25T12:41:58.678Z,5.70
2018-12-25T12:44:27.825Z,6.73
2018-12-25T12:46:57.468Z,5.83
2018-12-25T12:49:26.905Z,6.60
2018-12-25T12:51:56.164Z,6.73
2018-12-25T12:54:25.445Z,6.10
2018-12-25T12:56:54.926Z,5.47
2018-12-25T12:59:24.260Z,5.83
2018-12-25T13:01:53.497Z,6.17
2018-12-25T13:04:22.747Z,6.00
2018-12-25T13:06:52.077Z,6.97
2018-12-25T13:09:21.698Z,6.20
2018-12-25T13:11:51.043Z,6.30
2018-12-25T13:14:20.819Z,5.93
2018-12-25T13:16:50.144Z,5.63
2018-12-25T13:19:19.414Z,6.43
2018-12-25T13:21:48.819Z,5.80
2018-12-25T13:24:18.523Z,6.87
2018-12-25T13:26:48.218Z,6.30
2018-12-25T13:29:17.949Z,6.03
2018-12-25T13:31:47.603Z,6.70
2018-12-25T13:34:16.982Z,6.57
2018-12-25T13:36:46.285Z,5.40
2018-12-25T13:39:16.358Z,5.57
2018-12-25T13:41:46.098Z,5.73
2018-12-25T13:44:15.549Z,6.20
2018-12-25T13:46:51.566Z,6.10
2018-12-25T13:49:15.972Z,6.40
2018-12-25T13:51:45.528Z,5.80
2018-12-25T13:54:15.324Z,5.87
2018-12-25T13:56:45.412Z,5.87
2018-12-25T13:59:14.575Z,5.23
2018-12-25T14:01:44.153Z,5.70
2018-12-25T14:04:13.322Z,5.53
2018-12-25T14:06:42.524Z,5.20
2018-12-25T14:09:12.291Z,5.83
2018-12-25T14:11:41.862Z,5.73
2018-12-25T14:14:11.359Z,5.83
2018-12-25T14:16:40.503Z,6.60
2018-12-25T14:19:10.195Z,5.60
2018-12-25T14:21:39.616Z,6.20
2018-12-25T14:24:09.125Z,5.83
2018-12-25T14:26:38.285Z,5.90
2018-12-25T14:29:08.147Z,6.03
2018-12-25T14:31:37.730Z,6.77
2018-12-25T14:34:07.010Z,6.77
2018-12-25T14:36:36.570Z,5.50
2018-12-25T14:39:07.770Z,7.23
2018-12-25T14:41:36.930Z,6.20
2018-12-25T14:44:06.158Z,5.87
2018-12-25T14:46:35.869Z,6.60
2018-12-25T14:49:05.545Z,7.00
2018-12-25T14:51:35.125Z,6.23
2018-12-25T14:54:04.691Z,6.90
2018-12-25T14:56:34.232Z,6.27
2018-12-25T14:59:03.737Z,6.27
2018-12-25T15:01:33.026Z,6.73
2018-12-25T15:04:02.749Z,6.57
2018-12-25T15:06:32.012Z,5.50
2018-12-25T15:09:01.599Z,6.47
2018-12-25T15:11:31.118Z,6.03
2018-12-25T15:14:00.468Z,6.10
2018-12-25T15:16:29.635Z,6.57
2018-12-25T15:18:58.924Z,6.73
2018-12-25T15:21:28.503Z,6.43
2018-12-25T15:23:58.057Z,6.77
2018-12-25T15:26:27.664Z,7.73
2018-12-25T15:28:56.993Z,6.93
2018-12-25T15:31:26.471Z,6.53
2018-12-25T15:33:55.653Z,6.80
2018-12-25T15:36:25.201Z,6.40
2018-12-25T15:38:54.684Z,6.50
2018-12-25T15:41:24.429Z,6.70
2018-12-25T15:43:54.307Z,6.80
2018-12-25T15:46:23.769Z,6.53
2018-12-25T15:48:52.997Z,6.23
2018-12-25T15:51:22.385Z,7.13
2018-12-25T15:53:51.609Z,6.50
2018-12-25T15:56:20.764Z,6.30
2018-12-25T15:58:50.079Z,5.90
2018-12-25T16:01:19.322Z,6.60
2018-12-25T16:03:48.698Z,6.20
2018-12-25T16:06:18.252Z,5.97
2018-12-25T16:08:47.762Z,5.90
2018-12-25T16:11:17.010Z,6.60
2018-12-25T16:13:46.589Z,6.03
2018-12-25T16:16:15.837Z,5.90
2018-12-25T16:18:45.062Z,5.93
2018-12-25T16:21:14.285Z,6.73
2018-12-25T16:23:45.547Z,6.07
2018-12-25T16:26:14.444Z,7.60
2018-12-25T16:28:43.823Z,7.33
2018-12-25T16:31:13.374Z,6.87
2018-12-25T16:33:42.549Z,6.70
2018-12-25T16:36:11.813Z,6.27
2018-12-25T16:38:41.060Z,8.23
2018-12-25T16:41:10.322Z,6.47
2018-12-25T16:43:39.540Z,6.83
2018-12-25T16:46:08.893Z,6.27
2018-12-25T16:48:38.065Z,6.57
2018-12-25T16:51:07.307Z,5.47
2018-12-25T16:53:36.506Z,6.80
2018-12-25T16:56:05.705Z,6.07
2018-12-25T16:58:34.997Z,6.63
2018-12-25T17:01:04.534Z,5.97
2018-12-25T17:03:34.189Z,6.37
2018-12-25T17:06:03.829Z,7.77
2018-12-25T17:08:33.073Z,6.97
2018-12-25T17:11:02.654Z,5.93
2018-12-25T17:13:31.889Z,6.03
2018-12-25T17:16:01.086Z,7.60
2018-12-25T17:18:30.266Z,6.57
2018-12-25T17:20:59.852Z,7.23
2018-12-25T17:23:29.030Z,7.90
2018-12-25T17:25:58.553Z,6.77
2018-12-25T17:28:28.474Z,7.07
2018-12-25T17:30:57.789Z,7.37
2018-12-25T17:33:26.982Z,6.77
2018-12-25T17:35:56.624Z,6.80
2018-12-25T17:38:26.229Z,7.53
2018-12-25T17:40:55.846Z,6.97
2018-12-25T17:43:25.061Z,6.57
2018-12-25T17:45:54.437Z,7.63
2018-12-25T17:48:24.143Z,7.07
2018-12-25T17:50:53.562Z,7.37
2018-12-25T17:53:23.265Z,6.57
2018-12-25T17:55:52.881Z,7.33
2018-12-25T17:58:24.192Z,7.20
2018-12-25T18:00:53.061Z,6.57
2018-12-25T18:03:22.232Z,7.83
2018-12-25T18:05:51.629Z,7.70
2018-12-25T18:08:20.868Z,7.70
2018-12-25T18:10:50.480Z,7.07
2018-12-25T18:13:19.722Z,8.20
2018-12-25T18:15:49.680Z,7.60
2018-12-25T18:18:19.267Z,7.80
2018-12-25T18:20:48.506Z,7.83
2018-12-25T18:23:17.746Z,7.87
2018-12-25T18:25:47.029Z,7.33
2018-12-25T18:28:16.534Z,7.53
2018-12-25T18:30:46.103Z,8.10
2018-12-25T18:33:15.591Z,8.27
2018-12-25T18:35:44.788Z,7.73
2018-12-25T18:38:14.043Z,7.43
2018-12-25T18:40:43.386Z,7.27
2018-12-25T18:43:12.682Z,7.40
2018-12-25T18:45:42.151Z,7.63
2018-12-25T18:48:11.444Z,7.50
2018-12-25T18:50:40.974Z,6.97
2018-12-25T18:53:10.214Z,7.47
2018-12-25T18:55:40.312Z,8.43
2018-12-25T18:58:09.748Z,7.67
2018-12-25T19:00:38.986Z,8.40
2018-12-25T19:03:08.505Z,9.77
2018-12-25T19:05:37.702Z,7.90
2018-12-25T19:08:07.218Z,8.20
2018-12-25T19:10:36.620Z,8.43
2018-12-25T19:13:06.446Z,9.47
2018-12-25T19:15:36.240Z,9.67
2018-12-25T19:18:07.144Z,8.73
2018-12-25T19:20:36.639Z,9.60
2018-12-25T19:23:06.505Z,9.37
2018-12-25T19:25:35.675Z,8.53
2018-12-25T19:28:05.608Z,8.87
2018-12-25T19:30:37.390Z,9.13
2018-12-25T19:33:06.889Z,8.43
2018-12-25T19:35:36.449Z,9.17
2018-12-25T19:38:06.321Z,8.87
2018-12-25T19:40:35.603Z,8.97
2018-12-25T19:43:05.206Z,9.97
2018-12-25T19:45:34.818Z,10.13
2018-12-25T19:48:04.043Z,9.43
2018-12-25T19:50:33.663Z,10.00
2018-12-25T19:53:03.077Z,10.50
2018-12-25T19:55:32.424Z,9.73
2018-12-25T19:58:01.968Z,9.93
2018-12-25T20:00:31.238Z,9.60
2018-12-25T20:03:13.884Z,9.60
2018-12-25T20:06:01.040Z,9.03
2018-12-25T20:09:25.220Z,8.80
2018-12-25T20:12:08.273Z,9.60
2018-12-25T20:14:59.822Z,9.27
2018-12-25T20:18:14.454Z,9.67
2018-12-25T20:21:14.861Z,9.60
2018-12-25T20:24:19.740Z,12.23
2018-12-25T20:27:27.398Z,13.57
2018-12-25T20:30:32.512Z,12.93
2018-12-25T20:33:46.284Z,12.43
2018-12-25T20:36:44.001Z,12.33
2018-12-25T20:40:18.492Z,11.87
2018-12-25T20:43:33.105Z,13.20
2018-12-25T20:47:04.346Z,12.57
2018-12-25T20:50:32.594Z,14.93
2018-12-25T20:53:52.005Z,13.33
2018-12-25T20:56:57.526Z,13.73
2018-12-25T21:00:12.798Z,15.83
2018-12-25T21:03:36.974Z,18.27
2018-12-25T21:06:36.473Z,20.47
2018-12-25T21:09:54.694Z,23.37
2018-12-25T21:12:59.505Z,28.03
2018-12-25T21:16:34.309Z,24.87
2018-12-25T21:19:52.561Z,23.13
2018-12-25T21:23:04.053Z,21.90
2018-12-25T21:26:08.643Z,20.07
2018-12-25T21:28:38.025Z,17.03
2018-12-25T21:31:08.185Z,16.17
2018-12-25T21:33:38.177Z,15.07
2018-12-25T21:36:07.845Z,14.37
2018-12-25T21:38:39.215Z,13.13
2018-12-25T21:41:09.126Z,14.37
2018-12-25T21:43:38.662Z,12.60
2018-12-25T21:46:08.066Z,12.70
2018-12-25T21:48:37.886Z,13.17
2018-12-25T21:51:07.268Z,12.63
2018-12-25T21:53:37.167Z,12.67
2018-12-25T21:56:06.538Z,11.40
2018-12-25T21:58:35.950Z,11.87
2018-12-25T22:01:05.220Z,11.30
2018-12-25T22:03:34.434Z,11.37
2018-12-25T22:06:05.172Z,10.67
2018-12-25T22:08:34.771Z,10.63
2018-12-25T22:11:03.958Z,11.90
2018-12-25T22:13:33.547Z,11.97
2018-12-25T22:16:02.842Z,11.43
2018-12-25T22:18:33.149Z,13.87
2018-12-25T22:21:02.721Z,11.40
2018-12-25T22:23:32.974Z,11.37
2018-12-25T22:26:03.330Z,12.40
2018-12-25T22:28:32.677Z,11.73
2018-12-25T22:31:02.050Z,11.30
2018-12-25T22:33:31.721Z,13.07
2018-12-25T22:36:01.012Z,11.97
2018-12-25T22:38:30.301Z,12.13
2018-12-25T22:40:59.817Z,12.77
2018-12-25T22:43:29.296Z,13.40
2018-12-25T22:45:58.446Z,14.50
2018-12-25T22:48:27.647Z,16.60
2018-12-25T22:50:56.815Z,15.10
2018-12-25T22:53:26.117Z,16.83
2018-12-25T22:55:55.415Z,16.40
2018-12-25T22:58:24.781Z,15.87
2018-12-25T23:00:54.360Z,14.90
2018-12-25T23:03:24.346Z,15.47
2018-12-25T23:05:54.075Z,15.67
2018-12-25T23:08:23.525Z,19.43
2018-12-25T23:10:53.297Z,25.07
2018-12-25T23:13:22.748Z,25.77
2018-12-25T23:15:52.410Z,27.33
2018-12-25T23:18:21.966Z,23.53
2018-12-25T23:20:51.745Z,25.17
2018-12-25T23:23:21.031Z,28.80
2018-12-25T23:25:50.636Z,27.87
2018-12-25T23:28:20.115Z,24.97
2018-12-25T23:30:49.450Z,23.70
2018-12-25T23:33:18.991Z,24.77
2018-12-25T23:35:48.235Z,23.37
2018-12-25T23:38:17.576Z,21.47
2018-12-25T23:40:46.954Z,18.27
2018-12-25T23:43:16.542Z,16.33
2018-12-25T23:45:45.955Z,14.10
2018-12-25T23:48:15.390Z,15.13
2018-12-25T23:50:44.719Z,14.80
2018-12-25T23:53:14.190Z,13.70
2018-12-25T23:55:43.809Z,12.77
2018-12-25T23:58:13.313Z,14.33
